KMJX/MJX METAR and TAF weather

Enter ICAO airport designator
Station Type Date Time Source
KMJX METAR 2020/04/06 17:56 UTC NOAA

KMJX 061756Z AUTO 30009G16KT 240V360 10SM FEW050 17/04 A3001 RMK AO2 SLP166 T01720039 10172 20100 58019


Station Type Date Time Source
KMJX Decoded METAR 2020/04/06 17:56 UTC NOAA

Station name not available
Apr 06, 2020 - 01:56 PM EDT / 2020.04.06 1756 UTC
Wind: from the WNW (300 degrees) at 10 MPH (9 KT) gusting to 18 MPH (16 KT) (direction variable):0
Visibility: 10 mile(s):0
Sky conditions: mostly clear
Temperature: 63.0 F (17.2 C)
Dew Point: 39.0 F (3.9 C)
Relative Humidity: 41%
Pressure (altimeter): 30.01 in. Hg (1016 hPa)
Pressure tendency: 0.06 inches (1.9 hPa) lower than three hours ago
ob: KMJX 061756Z AUTO 30009G16KT 240V360 10SM FEW050 17/04 A3001 RMK AO2 SLP166 T01720039 10172 20100 58019
cycle: 18

Station Type Date Time Source
KMJX TAF UTC NOAA

Error!

Example: see airport list